Flight Track Log - Related Links

Times and Time Zones

All times are in EDT time to prevent confusion due to time zone crossing. See the TAM3221 flight status page for this flight to view local times or setup timezone preferences in your user account.

Time Position Orientation Groundspeed Altitude Reporting Facility
EDT Latitude Longitude Course Direction KTS MPH feet Rate Location/Type
Thu 06:47:24 PM -19.6730 -43.9470 164° South 169 194 4,700  Level FlightAware ADS-B
Thu 06:47:54 PM -19.6900 -43.9290 135° Southeast 184 212 5,600 1,745 Climbing FlightAware ADS-B
Thu 06:48:19 PM -19.6780 -43.9100 56° Northeast 207 238 6,300 2,000 Climbing FlightAware ADS-B
Thu 06:48:54 PM -19.6420 -43.9130 356° North 225 259 7,600 2,291 Climbing FlightAware ADS-B
Thu 06:49:14 PM -19.6200 -43.9170 350° North 244 281 8,400 2,400 Climbing FlightAware ADS-B
Thu 06:49:39 PM -19.5970 -43.9330 327° Northwest 263 303 9,400 2,836 Climbing FlightAware ADS-B
Thu 06:50:09 PM -19.5830 -43.9710 291° West 276 318 11,000 2,160 Climbing FlightAware ADS-B
Thu 06:50:54 PM -19.5660 -44.0360 286° West 339 390 12,100 1,457 Climbing FlightAware ADS-B
Thu 06:51:19 PM -19.5800 -44.0740 249° West 368 423 12,700 1,569 Climbing FlightAware ADS-B
Thu 06:51:59 PM -19.6310 -44.1290 225° Southwest 398 458 13,800 1,760 Climbing FlightAware ADS-B
Thu 06:52:34 PM -19.6770 -44.1770 224° Southwest 418 481 14,900 2,169 Climbing FlightAware ADS-B
Thu 06:53:22 PM -19.7430 -44.2480 225° Southwest 425 489 16,800 2,250 Climbing FlightAware ADS-B
Thu 06:53:46 PM -19.7720 -44.2830 229° Southwest 431 496 17,600 1,760 Climbing FlightAware ADS-B
Thu 06:54:37 PM -19.8410 -44.3780 232° Southwest 450 518 19,000 1,596 Climbing FlightAware ADS-B
Thu 06:55:35 PM -19.9140 -44.4770 232° Southwest 468 539 20,500 1,636 Climbing FlightAware ADS-B
Thu 06:56:27 PM -19.9830 -44.5690 231° Southwest 474 545 22,000 1,864 Climbing FlightAware ADS-B
Thu 06:57:18 PM -20.0540 -44.6660 232° Southwest 472 543 23,700 1,514 Climbing FlightAware ADS-B
Thu 06:58:18 PM -20.1370 -44.7780 232° Southwest 483 556 24,800 1,119 Climbing FlightAware ADS-B
Thu 06:59:16 PM -20.2160 -44.8840 232° Southwest 490 564 25,900 1,500 Climbing FlightAware ADS-B
Thu 06:59:42 PM -20.2520 -44.9340 232° Southwest 480 552 26,900 2,889 Climbing FlightAware ADS-B
Thu 07:00:37 PM -20.3220 -45.0300 232° Southwest 449 517 29,800 2,463 Climbing FlightAware ADS-B
Thu 07:01:17 PM -20.3740 -45.1000 232° Southwest 454 522 30,800 1,263 Climbing FlightAware ADS-B
Thu 07:02:12 PM -20.4440 -45.1960 232° Southwest 467 537 31,800 610 Climbing FlightAware ADS-B
Thu 07:03:15 PM -20.5290 -45.3120 232° Southwest 474 545 32,000 103 Climbing FlightAware ADS-B
Thu 07:04:08 PM -20.5970 -45.4060 232° Southwest 480 552 32,000  Level FlightAware ADS-B
Thu 07:04:52 PM -20.6140 -45.4290 232° Southwest 480 552 32,000  Level FlightAware ADS-B
Thu 07:05:31 PM -20.7030 -45.5520 232° Southwest 451 519 32,000  Level FlightAware ADS-B
Thu 07:07:32 PM -20.8740 -45.7870 232° Southwest 481 554 32,000  Level FlightAware ADS-B
Thu 07:08:05 PM -20.9330 -45.8690 232° Southwest 479 551 32,000  Level FlightAware ADS-B
Thu 07:08:37 PM -20.9750 -45.9280 233° Southwest 479 551 32,000  Level FlightAware ADS-B
Thu 07:09:03 PM -21.0120 -45.9780 232° Southwest 478 550 32,000  Level FlightAware ADS-B
Thu 07:09:53 PM -21.0760 -46.0680 233° Southwest 478 550 32,000  Level FlightAware ADS-B
Thu 07:10:43 PM -21.1460 -46.1640 232° Southwest 475 547 32,000  Level FlightAware ADS-B
Thu 07:11:31 PM -21.2110 -46.2550 233° Southwest 475 547 32,000  Level FlightAware ADS-B
Thu 07:12:41 PM -21.3030 -46.3840 233° Southwest 473 544 32,000  Level FlightAware ADS-B
Thu 07:13:17 PM -21.3520 -46.4520 232° Southwest 472 543 32,000  Level FlightAware ADS-B
Thu 07:14:03 PM -21.4130 -46.5370 232° Southwest 471 542 32,000  Level FlightAware ADS-B
Thu 07:14:47 PM -21.4720 -46.6200 233° Southwest 470 541 32,000  Level FlightAware ADS-B
Thu 07:15:43 PM -21.5470 -46.7200 231° Southwest 467 537 32,000  Level FlightAware ADS-B
Thu 07:16:07 PM -21.5910 -46.7510 213° Southwest 465 535 32,000  Level FlightAware ADS-B
Thu 07:16:55 PM -21.6770 -46.8090 212° Southwest 446 513 32,000  Level FlightAware ADS-B
Thu 07:17:33 PM -21.7430 -46.8520 211° Southwest 445 512 32,000  Level FlightAware ADS-B
Thu 07:18:09 PM -21.8060 -46.8950 212° Southwest 440 506 32,000  Level FlightAware ADS-B
Thu 07:18:49 PM -21.8750 -46.9410 212° Southwest 440 506 32,000  Level FlightAware ADS-B
Thu 07:19:39 PM -21.9620 -46.9990 212° Southwest 438 504 32,000  Level FlightAware ADS-B
Thu 07:20:35 PM -22.0550 -47.0610 212° Southwest 443 510 32,000 -259 Level FlightAware ADS-B
Thu 07:21:35 PM -22.1660 -47.1350 212° Southwest 448 516 31,500 -682 Descending FlightAware ADS-B
Thu 07:22:03 PM -22.2140 -47.1670 212° Southwest 448 516 31,000 -1,050 Descending FlightAware ADS-B
Thu 07:22:55 PM -22.3070 -47.2290 212° Southwest 451 519 30,100 -980 Descending FlightAware ADS-B
Thu 07:23:41 PM -22.3870 -47.2840 212° Southwest 450 518 29,400 -980 Descending FlightAware ADS-B
Thu 07:24:33 PM -22.4810 -47.3470 212° Southwest 437 503 28,500 -891 Descending FlightAware ADS-B
Thu 07:25:22 PM -22.5600 -47.4000 212° Southwest 391 450 27,900 -987 Descending FlightAware ADS-B
Thu 07:25:52 PM -22.6040 -47.4300 212° Southwest 363 418 27,200 -1,909 Descending FlightAware ADS-B
Thu 07:26:28 PM -22.6530 -47.4630 212° Southwest 354 407 25,800 -2,645 Descending FlightAware ADS-B
Thu 07:27:25 PM -22.7270 -47.5130 212° Southwest 354 407 23,100 -2,343 Descending FlightAware ADS-B
Thu 07:28:13 PM -22.8000 -47.5520 206° Southwest 343 395 21,700 -1,560 Descending FlightAware ADS-B
Thu 07:29:05 PM -22.8660 -47.5080 148° Southeast 332 382 20,500 -1,407 Descending FlightAware ADS-B
Thu 07:29:34 PM -22.8980 -47.4750 136° Southeast 331 381 19,800 -1,846 Descending FlightAware ADS-B
Thu 07:30:23 PM -22.9560 -47.4200 139° Southeast 323 372 18,100 -2,092 Descending FlightAware ADS-B
Thu 07:31:23 PM -23.0210 -47.3590 139° Southeast 310 357 16,000 -2,147 Descending FlightAware ADS-B
Thu 07:31:58 PM -23.0600 -47.3240 140° Southeast 307 353 14,700 -1,976 Descending FlightAware ADS-B
Thu 07:32:48 PM -23.1110 -47.2760 139° Southeast 289 333 13,200 -1,840 Descending FlightAware ADS-B
Thu 07:33:13 PM -23.1370 -47.2510 139° Southeast 285 328 12,400 -1,636 Descending FlightAware ADS-B
Thu 07:33:43 PM -23.1650 -47.2250 140° Southeast 269 310 11,700 -1,694 Descending FlightAware ADS-B
Thu 07:34:38 PM -23.2160 -47.1770 139° Southeast 261 300 10,000 -1,680 Descending FlightAware ADS-B
Thu 07:34:58 PM -23.2340 -47.1610 141° Southeast 258 297 9,600 -1,200 Descending FlightAware ADS-B
Thu 07:35:23 PM -23.2570 -47.1400 140° Southeast 254 292 9,100 -1,067 Descending FlightAware ADS-B
Thu 07:35:43 PM -23.2750 -47.1230 139° Southeast 250 288 8,800 -1,080 Descending FlightAware ADS-B
Thu 07:36:13 PM -23.3000 -47.1000 140° Southeast 247 284 8,200 -738 Descending FlightAware ADS-B
Thu 07:36:48 PM -23.3370 -47.0790 152° Southeast 251 289 8,000 -369 Descending FlightAware ADS-B
Thu 07:37:18 PM -23.3680 -47.0640 156° South 234 269 7,800 -764 Descending FlightAware ADS-B
Thu 07:37:43 PM -23.3920 -47.0520 155° Southeast 235 270 7,300 -840 Descending FlightAware ADS-B
Thu 07:38:08 PM -23.4160 -47.0390 154° Southeast 226 260 7,100 -655 Descending FlightAware ADS-B
Thu 07:38:38 PM -23.4440 -47.0250 155° Southeast 219 252 6,700 -700 Descending FlightAware ADS-B
Thu 07:39:08 PM -23.4570 -47.0000 120° Southeast 206 237 6,400 -429 Descending FlightAware ADS-B
Thu 07:39:34 PM -23.4480 -46.9780 66° East 199 229 6,300 -360 Descending FlightAware ADS-B
Thu 07:39:58 PM -23.4420 -46.9550 74° East 193 222 6,100 -615 Descending FlightAware ADS-B
Thu 07:40:13 PM -23.4400 -46.9390 82° East 192 221 5,900 -400 Descending FlightAware ADS-B
Thu 07:40:28 PM -23.4370 -46.9270 75° East 192 221 5,900 -235 Level FlightAware ADS-B
Thu 07:41:04 PM -23.4380 -46.8910 92° East 184 212 5,700 -300 Descending FlightAware ADS-B
Thu 07:41:28 PM -23.4420 -46.8700 102° East 175 201 5,600 -340 Descending FlightAware ADS-B
Thu 07:41:57 PM -23.4500 -46.8450 109° East 174 200 5,400 -316 Descending FlightAware ADS-B
Thu 07:42:25 PM -23.4570 -46.8220 108° East 170 196 5,300 -115 Descending FlightAware ADS-B
Thu 07:42:49 PM -23.4630 -46.8020 108° East 170 196 5,300 -125 Level FlightAware ADS-B
Thu 07:43:13 PM -23.4690 -46.7840 110° East 168 193 5,200 -231 Descending FlightAware ADS-B
Thu 07:43:41 PM -23.4760 -46.7630 110° East 153 176 5,100 -231 Descending FlightAware ADS-B
Thu 07:44:05 PM -23.4890 -46.7520 142° Southeast 159 183 5,000 -250 Descending FlightAware ADS-B
Thu 07:44:29 PM -23.5050 -46.7410 148° Southeast 154 177 4,900 -545 Descending FlightAware ADS-B
Thu 07:44:49 PM -23.5160 -46.7330 146° Southeast 141 162 4,600 -750 Descending FlightAware ADS-B
Thu 07:45:17 PM -23.5310 -46.7230 149° Southeast 126 145 4,300 -643 Descending FlightAware ADS-B
Thu 07:45:45 PM -23.5440 -46.7140 148° Southeast 124 143 4,000 -621 Descending FlightAware ADS-B
Thu 07:46:15 PM -23.5590 -46.7030 146° Southeast 124 143 3,700 -545 Descending FlightAware ADS-B
Thu 07:46:40 PM -23.5700 -46.6950 146° Southeast 121 139 3,500 -566 Descending FlightAware ADS-B
Thu 07:47:08 PM -23.5840 -46.6860 149° Southeast 123 142 3,200 -625 Descending FlightAware ADS-B
Thu 07:47:28 PM -23.5940 -46.6790 147° Southeast 122 140 3,000 -600 Descending FlightAware ADS-B
Thu 07:48:08 PM -23.6130 -46.6660 148° Southeast 122 140 2,600 -508 Descending FlightAware ADS-B
Thu 07:48:27 PM -23.6170 -46.6630 146° Southeast 127 146 2,500 -514 Descending FlightAware ADS-B
Thu 07:48:43 PM -23.6260 -46.6570 149° Southeast 121 139 2,300 -286 Descending FlightAware ADS-B
Thu 07:49:09 PM -23.6360 -46.6500 147° Southeast 121 139 2,300  Level FlightAware ADS-B
Thu 07:50:14 PM -23.6300 -46.6550 323° Northwest 120 138 -2,123 Descending FlightAware ADS-B
Thu 07:50:39 PM -23.6370 -46.6450 127° Southeast 120 138  Level FlightAware ADS-B
Thu 07:53:00 PM -23.6267 -46.6554 317° Northwest  Level Estimated
Thu 07:54:00 PM -23.6267 -46.6554 114° Southeast  Level Estimated
Thu 07:55:00 PM -23.6267 -46.6554 114° Southeast  Level Estimated
Thu 07:56:00 PM -23.6267 -46.6554 114° Southeast  Level Estimated
Thu 07:56:20 PM -23.6300 -46.6580 114° Southeast  Level FlightAware ADS-B
Thu 07:56:45 PM -23.6300 -46.6590 270° West  Level FlightAware ADS-B
Thu 07:59:00 PM -23.6267 -46.6554 45° Northeast  Level Estimated
Thu 08:00:00 PM -23.6267 -46.6554 114° Southeast  Level Estimated
Thu 08:01:00 PM -23.6267 -46.6554 114° Southeast  Level Estimated
Thu 08:02:00 PM -23.6267 -46.6554 114° Southeast  Level Estimated
Thu 08:03:00 PM -23.6267 -46.6554 114° Southeast  Level Estimated
Thu 08:04:00 PM -23.6267 -46.6554 114° Southeast  Level Estimated
Thu 08:05:00 PM -23.6267 -46.6554 114° Southeast  Level Estimated
Thu 08:06:00 PM -23.6267 -46.6554 114° Southeast  Level Estimated
Thu 08:07:00 PM -23.6267 -46.6554 114° Southeast  Level Estimated

Login

Don't have an account? Register now (free) for customized features, flight alerts, and more!